Time;durP1;ratioP1;P1;durP2;ratioP2;P2;SDS_P1;SDS_P2;PMS_P1;PMS_P2;Temp;Humidity;BMP_temperature;BMP_pressure;BME280_temperature;BME280_humidity;BME280_pressure;Samples;Min_cycle;Max_cycle;Signal;HPM_P1;HPM_P2
2021/03/29 00:00:13;;;;;;;11.37;4.57;;;10.20;99.90;;;;;;5096501;28;20412;-71
2021/03/29 00:02:39;;;;;;;10.57;4.50;;;10.10;99.90;;;;;;5096749;28;20486;-71
2021/03/29 00:05:05;;;;;;;14.20;4.77;;;9.90;99.90;;;;;;5096895;28;20388;-71
2021/03/29 00:07:33;;;;;;;9.77;4.80;;;10.10;99.90;;;;;;5096325;28;20175;-75
2021/03/29 00:10:02;;;;;;;14.30;5.50;;;10.20;99.90;;;;;;5096787;28;20985;-71
2021/03/29 00:12:28;;;;;;;12.00;5.27;;;10.30;99.90;;;;;;5096335;28;20456;-71
2021/03/29 00:14:54;;;;;;;11.20;5.10;;;10.60;99.90;;;;;;5096377;28;20487;-71
2021/03/29 00:17:20;;;;;;;14.70;5.23;;;10.70;99.90;;;;;;5096251;28;20926;-71
2021/03/29 00:19:46;;;;;;;7.93;4.77;;;10.60;99.90;;;;;;5096216;28;20428;-71
2021/03/29 00:22:12;;;;;;;11.97;4.43;;;10.60;99.90;;;;;;5096062;28;20827;-71
2021/03/29 00:24:39;;;;;;;14.10;6.13;;;10.60;99.90;;;;;;5096111;28;20430;-71
2021/03/29 00:27:05;;;;;;;10.70;5.47;;;10.70;99.90;;;;;;5096100;28;20434;-71
2021/03/29 00:29:30;;;;;;;13.40;5.50;;;10.90;99.90;;;;;;5096320;28;20416;-71
2021/03/29 00:31:57;;;;;;;18.87;5.70;;;11.00;99.90;;;;;;5095916;28;20807;-71
2021/03/29 00:34:23;;;;;;;14.30;5.70;;;10.90;99.90;;;;;;5095901;28;20563;-71
2021/03/29 00:36:51;;;;;;;16.80;5.20;;;10.90;99.90;;;;;;5095880;28;20401;-71
2021/03/29 00:39:17;;;;;;;13.70;5.80;;;10.80;99.90;;;;;;5095751;28;20409;-71
2021/03/29 00:41:43;;;;;;;14.10;5.00;;;10.80;99.90;;;;;;5095659;28;20415;-71
2021/03/29 00:44:10;;;;;;;11.70;5.33;;;10.80;99.90;;;;;;5093546;28;20806;-71
2021/03/29 00:46:38;;;;;;;9.73;4.67;;;10.90;99.90;;;;;;5095652;28;20189;-71
2021/03/29 00:49:04;;;;;;;12.00;5.13;;;10.90;99.90;;;;;;5095610;28;20997;-71
2021/03/29 00:51:35;;;;;;;12.10;5.17;;;10.90;99.90;;;;;;5095643;28;20433;-71
2021/03/29 00:54:04;;;;;;;11.00;5.07;;;11.00;99.90;;;;;;5095671;28;20408;-71
2021/03/29 00:56:33;;;;;;;9.63;4.47;;;11.00;99.90;;;;;;5095730;28;20376;-72
2021/03/29 00:59:00;;;;;;;11.17;5.57;;;10.80;99.90;;;;;;5095709;28;20751;-71
2021/03/29 01:01:46;;;;;;;9.07;5.17;;;10.70;99.90;;;;;;5095392;28;20743;-71
2021/03/29 01:04:12;;;;;;;12.90;6.67;;;10.70;99.90;;;;;;5095410;28;20348;-71
2021/03/29 01:06:43;;;;;;;17.60;5.23;;;10.70;99.90;;;;;;5095264;28;20404;-71
2021/03/29 01:09:35;;;;;;;9.57;4.20;;;10.80;99.90;;;;;;5095077;28;20437;-71
2021/03/29 01:12:05;;;;;;;12.30;5.57;;;10.80;99.90;;;;;;5091633;28;20528;-71
2021/03/29 01:14:44;;;;;;;18.33;5.40;;;10.80;99.90;;;;;;5095350;28;20484;-71
2021/03/29 01:17:20;;;;;;;11.00;5.27;;;10.80;99.90;;;;;;5095082;28;20386;-71
2021/03/29 01:19:46;;;;;;;12.07;5.73;;;10.80;99.90;;;;;;5095341;28;20414;-71
2021/03/29 01:22:14;;;;;;;17.23;8.00;;;10.70;99.90;;;;;;5094933;28;20420;-71
2021/03/29 01:24:58;;;;;;;15.90;6.80;;;10.70;99.90;;;;;;5095222;28;20258;-71
2021/03/29 01:27:29;;;;;;;13.80;6.30;;;10.60;99.90;;;;;;5094880;28;20443;-71
2021/03/29 01:29:56;;;;;;;12.43;4.57;;;10.70;99.90;;;;;;5095145;28;20432;-71
2021/03/29 01:32:23;;;;;;;12.53;5.50;;;10.70;99.90;;;;;;5094714;28;20429;-71
2021/03/29 01:34:49;;;;;;;13.80;5.87;;;10.70;99.90;;;;;;5094615;28;20452;-71
2021/03/29 01:37:16;;;;;;;12.63;5.50;;;10.60;99.90;;;;;;5094937;28;20831;-71
2021/03/29 01:39:44;;;;;;;16.10;6.27;;;10.50;99.90;;;;;;5094854;28;20400;-71
2021/03/29 01:42:12;;;;;;;14.30;5.80;;;10.40;99.90;;;;;;5094583;28;20768;-71
2021/03/29 01:44:38;;;;;;;10.30;5.70;;;10.40;99.90;;;;;;5094693;28;20462;-71
2021/03/29 01:47:06;;;;;;;14.23;5.27;;;10.30;99.90;;;;;;5094764;28;20894;-70
2021/03/29 01:49:33;;;;;;;14.60;6.17;;;10.40;99.90;;;;;;5094512;28;20418;-71
2021/03/29 01:52:00;;;;;;;11.87;4.80;;;10.50;99.90;;;;;;5094570;28;20908;-71
2021/03/29 01:54:27;;;;;;;11.90;5.70;;;10.50;99.90;;;;;;5092932;28;20499;-71
2021/03/29 01:56:53;;;;;;;18.67;5.67;;;10.60;99.90;;;;;;5094476;28;20406;-71
2021/03/29 01:59:18;;;;;;;14.23;6.50;;;10.60;99.90;;;;;;5094726;28;20750;-71
2021/03/29 02:01:44;;;;;;;16.37;6.50;;;10.60;99.90;;;;;;5094133;28;20540;-71
2021/03/29 02:04:10;;;;;;;12.67;5.60;;;10.50;99.90;;;;;;5094130;28;20167;-71
2021/03/29 02:06:37;;;;;;;12.03;6.07;;;10.50;99.90;;;;;;5094413;28;20164;-71
2021/03/29 02:09:05;;;;;;;10.63;4.97;;;10.50;99.90;;;;;;5094234;28;20441;-71
2021/03/29 02:11:31;;;;;;;18.33;6.73;;;10.50;99.90;;;;;;5094004;28;20393;-71
2021/03/29 02:13:59;;;;;;;10.50;5.33;;;10.60;99.90;;;;;;5094404;28;20474;-71
2021/03/29 02:16:28;;;;;;;9.20;5.77;;;10.40;99.90;;;;;;5094437;28;20414;-71
2021/03/29 02:18:57;;;;;;;19.53;10.97;;;10.40;99.90;;;;;;5093942;28;20770;-71
2021/03/29 02:21:50;;;;;;;19.10;8.33;;;10.40;99.90;;;;;;5094082;28;20476;-71
2021/03/29 02:24:16;;;;;;;17.57;6.70;;;10.50;99.90;;;;;;5089946;28;20509;-71
2021/03/29 02:26:43;;;;;;;16.90;6.13;;;10.50;99.90;;;;;;5093781;28;20429;-71
2021/03/29 02:29:09;;;;;;;12.43;5.77;;;10.50;99.90;;;;;;5093702;28;20384;-71
2021/03/29 02:31:36;;;;;;;14.87;5.43;;;10.50;99.90;;;;;;5093684;28;20406;-71
2021/03/29 02:34:03;;;;;;;20.90;6.27;;;10.40;99.90;;;;;;5093493;28;20421;-71
2021/03/29 02:36:29;;;;;;;17.43;6.73;;;10.10;99.90;;;;;;5093578;28;20469;-71
2021/03/29 02:38:57;;;;;;;14.23;6.57;;;10.00;99.90;;;;;;5093547;28;20394;-71
2021/03/29 02:41:26;;;;;;;10.87;5.07;;;9.90;99.90;;;;;;5093512;28;20790;-71
2021/03/29 02:43:53;;;;;;;9.83;5.10;;;10.20;99.90;;;;;;5093667;28;20424;-71
2021/03/29 02:46:23;;;;;;;17.90;6.10;;;10.10;99.90;;;;;;5093474;28;20419;-71
2021/03/29 02:48:50;;;;;;;14.37;5.90;;;9.90;99.90;;;;;;5093415;28;20443;-71
2021/03/29 02:51:17;;;;;;;13.40;6.80;;;9.90;99.90;;;;;;5093340;28;20402;-71
2021/03/29 02:54:00;;;;;;;16.70;6.20;;;10.10;99.90;;;;;;5093508;28;20403;-71
2021/03/29 02:56:31;;;;;;;17.17;7.07;;;9.80;99.90;;;;;;5093297;28;20480;-71
2021/03/29 02:59:02;;;;;;;15.23;5.43;;;9.80;99.90;;;;;;5093566;28;20738;-71
2021/03/29 03:01:31;;;;;;;14.70;5.83;;;9.70;99.90;;;;;;5093519;28;20386;-71
2021/03/29 03:03:57;;;;;;;10.60;5.20;;;9.60;99.90;;;;;;5093095;28;20871;-71
2021/03/29 03:06:24;;;;;;;11.47;4.77;;;9.60;99.90;;;;;;5093075;28;20402;-71
2021/03/29 03:08:50;;;;;;;17.77;5.83;;;9.40;99.90;;;;;;5092532;28;20425;-71
2021/03/29 03:11:17;;;;;;;15.03;5.33;;;9.50;99.90;;;;;;5093294;28;20511;-71
2021/03/29 03:13:44;;;;;;;16.40;5.57;;;9.30;99.90;;;;;;5092974;28;20456;-72
2021/03/29 03:16:10;;;;;;;14.23;5.13;;;9.30;99.90;;;;;;5093206;28;20532;-71
2021/03/29 03:18:36;;;;;;;9.20;4.80;;;9.30;99.90;;;;;;5093055;28;20402;-71
2021/03/29 03:21:02;;;;;;;9.03;4.50;;;9.20;99.90;;;;;;5092926;28;20444;-72
2021/03/29 03:23:28;;;;;;;9.90;3.83;;;9.10;99.90;;;;;;5093203;28;20456;-71
2021/03/29 03:25:53;;;;;;;15.53;5.30;;;9.10;99.90;;;;;;5093185;28;20175;-71
2021/03/29 03:28:25;;;;;;;13.47;5.10;;;9.10;99.90;;;;;;5092849;28;20183;-71
2021/03/29 03:30:53;;;;;;;15.40;5.67;;;9.00;99.90;;;;;;5092957;28;20171;-71
2021/03/29 03:33:21;;;;;;;15.10;4.20;;;9.00;99.90;;;;;;5092872;28;20430;-71
2021/03/29 03:35:47;;;;;;;10.30;5.00;;;8.70;1.00;;;;;;5092763;28;20792;-71
2021/03/29 03:38:24;;;;;;;14.43;4.90;;;8.50;1.00;;;;;;5092761;28;20882;-71
2021/03/29 03:40:55;;;;;;;15.73;6.67;;;8.60;1.00;;;;;;5093197;28;20431;-71
2021/03/29 03:43:24;;;;;;;10.40;4.70;;;8.60;1.00;;;;;;5093468;28;20429;-71
2021/03/29 03:46:08;;;;;;;11.13;4.20;;;8.70;1.00;;;;;;5092881;28;20413;-71
2021/03/29 03:48:36;;;;;;;13.77;5.70;;;8.70;1.00;;;;;;5092868;28;20401;-71
2021/03/29 03:51:02;;;;;;;17.63;5.10;;;8.70;1.00;;;;;;5092651;28;20410;-71
2021/03/29 03:53:29;;;;;;;13.93;4.40;;;8.70;1.00;;;;;;5091272;28;20415;-71
2021/03/29 03:55:56;;;;;;;15.10;5.83;;;8.70;1.00;;;;;;5092502;28;20482;-71
2021/03/29 03:58:22;;;;;;;14.43;4.73;;;8.70;1.00;;;;;;5092667;28;20405;-71
2021/03/29 04:00:48;;;;;;;12.77;4.83;;;8.50;1.00;;;;;;5092766;28;20410;-71
2021/03/29 04:03:13;;;;;;;9.53;4.53;;;8.70;1.00;;;;;;5092494;28;20436;-71
2021/03/29 04:05:39;;;;;;;8.30;4.33;;;8.60;1.00;;;;;;5093335;28;20413;-71
2021/03/29 04:08:05;;;;;;;11.40;5.20;;;8.60;1.00;;;;;;5092441;28;20191;-71
2021/03/29 04:10:52;;;;;;;13.77;5.10;;;8.50;1.00;;;;;;5092836;28;20206;-71
2021/03/29 04:13:30;;;;;;;11.00;4.37;;;8.50;1.00;;;;;;5092691;28;20520;-71
2021/03/29 04:16:04;;;;;;;13.50;4.53;;;8.40;1.00;;;;;;5092627;28;20441;-71
2021/03/29 04:18:30;;;;;;;13.20;4.40;;;8.30;1.00;;;;;;5092733;28;20366;-71
2021/03/29 04:20:57;;;;;;;13.77;4.70;;;8.30;1.00;;;;;;5095092;28;20814;-71
2021/03/29 04:23:23;;;;;;;13.27;4.40;;;8.50;1.00;;;;;;5096006;28;20421;-71
2021/03/29 04:25:50;;;;;;;14.00;4.30;;;8.50;1.00;;;;;;5096039;28;20636;-71
2021/03/29 04:28:15;;;;;;;10.63;4.23;;;8.30;1.00;;;;;;5096220;28;20907;-71
2021/03/29 04:30:41;;;;;;;11.47;4.03;;;8.20;1.00;;;;;;5095975;28;20412;-71
2021/03/29 04:33:07;;;;;;;7.10;3.93;;;8.20;1.00;;;;;;5096096;28;20187;-71
2021/03/29 04:35:33;;;;;;;7.53;4.27;;;8.30;1.00;;;;;;5095772;28;20558;-71
2021/03/29 04:37:59;;;;;;;15.00;4.30;;;8.30;1.00;;;;;;5095999;28;20244;-72
2021/03/29 04:40:26;;;;;;;11.83;4.57;;;8.10;1.00;;;;;;5095872;28;20425;-71
2021/03/29 04:42:53;;;;;;;10.13;5.03;;;8.00;1.00;;;;;;5095660;28;20475;-71
2021/03/29 04:45:20;;;;;;;8.80;3.80;;;8.20;1.00;;;;;;5095693;28;20549;-71
2021/03/29 04:47:46;;;;;;;15.30;5.40;;;8.10;1.00;;;;;;5095770;28;20407;-71
2021/03/29 04:50:14;;;;;;;10.73;4.07;;;8.00;1.00;;;;;;5095732;28;20417;-71
2021/03/29 04:52:40;;;;;;;6.87;3.57;;;8.10;1.00;;;;;;5094629;28;20980;-71
2021/03/29 04:55:06;;;;;;;14.83;3.43;;;8.00;1.00;;;;;;5095334;28;21028;-71
2021/03/29 04:57:32;;;;;;;5.60;3.27;;;8.00;1.00;;;;;;5095393;28;20410;-71
2021/03/29 04:59:58;;;;;;;11.73;4.27;;;7.90;1.00;;;;;;5095245;28;20403;-71
2021/03/29 05:02:23;;;;;;;9.13;3.83;;;7.90;1.00;;;;;;5095555;28;20195;-70
2021/03/29 05:04:49;;;;;;;9.70;4.80;;;7.90;1.00;;;;;;5095774;28;20211;-71
2021/03/29 05:07:15;;;;;;;16.97;4.97;;;7.90;1.00;;;;;;5095731;28;20596;-71
2021/03/29 05:09:41;;;;;;;10.43;4.10;;;7.90;1.00;;;;;;5095106;28;20690;-71
2021/03/29 05:12:09;;;;;;;8.80;3.05;;;7.80;1.00;;;;;;5095413;28;20191;-71
2021/03/29 05:14:39;;;;;;;16.75;4.22;;;7.80;1.00;;;;;;5095289;28;20200;-71
2021/03/29 05:17:06;;;;;;;8.85;4.63;;;7.90;1.00;;;;;;5095188;28;20160;-71
2021/03/29 05:19:32;;;;;;;8.57;3.75;;;7.80;1.00;;;;;;5094977;28;20198;-71
2021/03/29 05:21:58;;;;;;;10.53;4.40;;;7.80;1.00;;;;;;5094967;28;20172;-71
2021/03/29 05:24:24;;;;;;;9.87;4.00;;;7.90;1.00;;;;;;5094948;28;20256;-71
2021/03/29 05:26:50;;;;;;;14.30;4.10;;;7.90;1.00;;;;;;5094659;28;20437;-71
2021/03/29 05:29:15;;;;;;;8.50;3.57;;;7.90;1.00;;;;;;5094823;28;20929;-71
2021/03/29 05:31:41;;;;;;;9.77;4.27;;;7.80;1.00;;;;;;5094208;28;20172;-70
2021/03/29 05:34:10;;;;;;;5.87;3.70;;;7.80;1.00;;;;;;5094593;28;20171;-71
2021/03/29 05:36:36;;;;;;;18.30;4.00;;;7.70;1.00;;;;;;5094510;28;20187;-71
2021/03/29 05:39:03;;;;;;;14.70;4.33;;;7.70;1.00;;;;;;5094403;28;20802;-71
2021/03/29 05:41:29;;;;;;;8.63;3.80;;;7.80;1.00;;;;;;5094116;28;20170;-71
2021/03/29 05:43:55;;;;;;;11.70;3.50;;;8.00;1.00;;;;;;5094279;28;20425;-70
2021/03/29 05:46:21;;;;;;;12.63;5.13;;;8.00;1.00;;;;;;5094210;28;20389;-71
2021/03/29 05:48:47;;;;;;;12.43;3.53;;;8.10;1.00;;;;;;5094941;28;20169;-71
2021/03/29 05:51:13;;;;;;;10.97;4.53;;;8.20;1.00;;;;;;5094410;28;20482;-71
2021/03/29 05:53:38;;;;;;;14.03;4.63;;;8.20;1.00;;;;;;5094723;28;20427;-71
2021/03/29 05:56:05;;;;;;;18.77;6.57;;;8.20;1.00;;;;;;5094560;28;20333;-71
2021/03/29 06:00:56;;;;;;;6.43;3.87;;;7.90;1.00;;;;;;5094491;28;20163;-71
2021/03/29 06:03:26;;;;;;;11.73;4.60;;;8.00;1.00;;;;;;5094582;28;20197;-70
2021/03/29 06:06:00;;;;;;;9.07;4.87;;;8.20;1.00;;;;;;5094508;28;20636;-70
2021/03/29 06:08:27;;;;;;;10.63;4.93;;;8.20;1.00;;;;;;5093841;28;20775;-71
2021/03/29 06:10:55;;;;;;;10.00;4.13;;;8.30;1.00;;;;;;5093844;28;20502;-70
2021/03/29 06:13:29;;;;;;;14.00;4.60;;;8.50;1.00;;;;;;5092484;28;20494;-70
2021/03/29 06:16:09;;;;;;;11.70;5.43;;;8.60;1.00;;;;;;5093805;28;20468;-70
2021/03/29 06:18:36;;;;;;;10.03;3.80;;;8.70;1.00;;;;;;5096581;28;20468;-71
2021/03/29 06:21:11;;;;;;;10.87;3.33;;;8.70;1.00;;;;;;5102492;28;20419;-71
2021/03/29 06:23:40;;;;;;;11.87;4.33;;;8.80;1.00;;;;;;5094012;28;20413;-71
2021/03/29 06:26:19;;;;;;;7.57;4.07;;;8.80;1.00;;;;;;5093919;28;20409;-71
2021/03/29 06:28:46;;;;;;;8.87;4.13;;;8.90;1.00;;;;;;5094077;28;20409;-71
2021/03/29 06:31:29;;;;;;;10.70;4.93;;;8.90;1.00;;;;;;5093673;28;20409;-71
2021/03/29 06:33:55;;;;;;;16.43;4.53;;;9.30;1.00;;;;;;5093265;28;20425;-71
2021/03/29 06:36:30;;;;;;;24.63;4.63;;;9.60;1.00;;;;;;5094149;28;20502;-71
2021/03/29 06:39:17;;;;;;;10.63;4.60;;;9.80;1.00;;;;;;5093337;28;20412;-71
2021/03/29 06:41:57;;;;;;;22.37;5.33;;;9.90;99.90;;;;;;5092078;28;20428;-71
2021/03/29 06:44:35;;;;;;;9.43;4.30;;;10.10;99.90;;;;;;5091503;28;20419;-71
2021/03/29 06:47:19;;;;;;;10.80;3.43;;;10.20;99.90;;;;;;5093362;28;20397;-71
2021/03/29 06:49:44;;;;;;;11.37;3.90;;;10.30;99.90;;;;;;5093391;28;20385;-71
2021/03/29 06:52:29;;;;;;;7.07;2.97;;;10.40;99.90;;;;;;5092992;28;20533;-72
2021/03/29 06:55:20;;;;;;;9.30;3.43;;;10.50;99.90;;;;;;5093295;28;20191;-71
2021/03/29 06:57:46;;;;;;;8.60;3.33;;;10.60;99.90;;;;;;5091890;28;20444;-71
2021/03/29 07:00:26;;;;;;;8.77;3.77;;;10.80;99.90;;;;;;5093291;28;20498;-71
2021/03/29 07:02:53;;;;;;;10.33;3.07;;;10.80;99.90;;;;;;5091510;28;20428;-71
2021/03/29 07:05:18;;;;;;;14.00;3.67;;;10.90;99.90;;;;;;5094607;28;20466;-71
2021/03/29 07:07:44;;;;;;;9.90;3.47;;;11.00;99.90;;;;;;5093644;28;21000;-71
2021/03/29 07:10:10;;;;;;;11.43;3.53;;;11.00;99.90;;;;;;5093312;28;20167;-71
2021/03/29 07:12:40;;;;;;;8.83;3.83;;;11.10;99.90;;;;;;5093027;28;20687;-71
2021/03/29 07:15:11;;;;;;;5.33;3.00;;;11.00;99.90;;;;;;5093295;28;20854;-71
2021/03/29 07:17:39;;;;;;;10.30;3.47;;;11.20;99.90;;;;;;5092864;28;20987;-71
2021/03/29 07:20:07;;;;;;;6.67;2.47;;;11.30;99.90;;;;;;5092739;28;20966;-71
2021/03/29 07:22:35;;;;;;;13.47;3.60;;;11.40;99.90;;;;;;5093004;28;20518;-70
2021/03/29 07:25:07;;;;;;;15.53;3.50;;;11.40;99.90;;;;;;5093012;28;20413;-71
2021/03/29 07:27:38;;;;;;;9.87;3.60;;;11.50;99.90;;;;;;5092820;28;20412;-70
2021/03/29 07:30:05;;;;;;;8.37;2.90;;;11.50;99.90;;;;;;5092807;28;20386;-71
2021/03/29 07:32:34;;;;;;;7.47;2.70;;;11.60;99.90;;;;;;5093288;28;20410;-70
2021/03/29 07:35:00;;;;;;;8.70;2.70;;;11.70;99.90;;;;;;5092516;28;20411;-71
2021/03/29 07:37:28;;;;;;;12.70;2.30;;;11.80;99.90;;;;;;5092382;28;20420;-70
2021/03/29 07:39:54;;;;;;;10.40;3.70;;;11.80;99.90;;;;;;5092487;28;20811;-71
2021/03/29 07:42:40;;;;;;;6.67;2.53;;;12.00;99.90;;;;;;5092647;28;20413;-71
2021/03/29 07:45:17;;;;;;;7.23;2.37;;;12.10;99.90;;;;;;5092462;28;20797;-70
2021/03/29 07:47:50;;;;;;;9.33;3.53;;;12.20;99.90;;;;;;5092642;28;20425;-71
2021/03/29 07:50:24;;;;;;;7.13;2.67;;;12.20;99.90;;;;;;5092517;28;20416;-71
2021/03/29 07:52:54;;;;;;;10.87;2.60;;;12.30;99.90;;;;;;5092501;28;20424;-72
2021/03/29 07:55:31;;;;;;;7.33;2.90;;;12.40;99.90;;;;;;5095952;28;20444;-71
2021/03/29 07:57:57;;;;;;;15.87;3.20;;;12.50;99.90;;;;;;5096259;28;20765;-71
2021/03/29 08:00:22;;;;;;;7.03;2.80;;;12.70;99.90;;;;;;5096346;28;20372;-72
2021/03/29 08:02:48;;;;;;;7.80;3.30;;;12.70;99.90;;;;;;5096274;28;20187;-71
2021/03/29 08:05:15;;;;;;;10.73;2.70;;;12.70;99.90;;;;;;5096063;28;20627;-71
2021/03/29 08:07:48;;;;;;;6.17;2.90;;;12.80;99.90;;;;;;5095963;28;20902;-71
2021/03/29 08:10:16;;;;;;;8.30;3.10;;;12.90;99.90;;;;;;5096364;28;20445;-72
2021/03/29 08:12:59;;;;;;;5.73;2.30;;;13.00;99.90;;;;;;5095931;28;20428;-71
2021/03/29 08:16:03;;;;;;;12.40;2.67;;;13.20;99.90;;;;;;5095879;28;20427;-71
2021/03/29 08:18:29;;;;;;;7.27;2.50;;;13.20;99.90;;;;;;5095921;28;20501;-71
2021/03/29 08:20:56;;;;;;;5.80;2.33;;;13.20;99.90;;;;;;5095890;28;20957;-70
2021/03/29 08:23:31;;;;;;;10.50;3.20;;;13.40;99.90;;;;;;5095730;28;20516;-71
2021/03/29 08:26:12;;;;;;;23.83;12.87;;;13.40;99.90;;;;;;5095969;28;20413;-71
2021/03/29 08:29:11;;;;;;;8.43;2.67;;;13.20;99.90;;;;;;5095721;28;20413;-71
2021/03/29 08:31:59;;;;;;;5.50;2.00;;;13.50;99.90;;;;;;5095663;28;20466;-71
2021/03/29 08:34:25;;;;;;;7.47;2.30;;;13.70;99.90;;;;;;5095517;28;20421;-71
2021/03/29 08:36:53;;;;;;;11.37;2.50;;;13.70;99.90;;;;;;5095877;28;20413;-71
2021/03/29 08:39:19;;;;;;;7.50;2.57;;;13.80;99.90;;;;;;5095683;28;20398;-71
2021/03/29 08:41:49;;;;;;;7.27;2.37;;;14.00;99.90;;;;;;5095968;28;20450;-71
2021/03/29 08:44:14;;;;;;;5.20;2.30;;;14.00;99.90;;;;;;5095426;28;20165;-71
2021/03/29 08:46:40;;;;;;;7.83;3.10;;;14.10;99.90;;;;;;5095506;28;20467;-71
2021/03/29 08:49:08;;;;;;;11.13;2.90;;;14.20;99.90;;;;;;5095876;28;20173;-71
2021/03/29 08:51:35;;;;;;;4.87;2.43;;;14.40;99.90;;;;;;5095424;28;20178;-71
2021/03/29 08:54:09;;;;;;;8.07;2.20;;;14.30;99.90;;;;;;5095261;28;20421;-71
2021/03/29 08:56:42;;;;;;;8.43;2.53;;;14.60;99.90;;;;;;5095671;28;20783;-71
2021/03/29 08:59:08;;;;;;;6.83;3.07;;;14.80;99.90;;;;;;5095543;28;20483;-71
2021/03/29 09:01:34;;;;;;;9.70;3.70;;;14.90;99.90;;;;;;5095424;28;20463;-71
2021/03/29 09:04:04;;;;;;;8.53;2.23;;;15.00;99.90;;;;;;5095381;28;20430;-71
2021/03/29 09:06:31;;;;;;;5.90;2.43;;;15.00;99.90;;;;;;5094774;28;20456;-70
2021/03/29 09:08:58;;;;;;;7.70;2.73;;;15.00;99.90;;;;;;5094756;28;20423;-71
2021/03/29 09:11:24;;;;;;;6.70;3.80;;;15.10;99.90;;;;;;5095116;28;20434;-71
2021/03/29 09:13:54;;;;;;;9.00;4.60;;;15.30;99.90;;;;;;5095086;28;20446;-71
2021/03/29 09:16:26;;;;;;;12.20;3.10;;;15.60;99.90;;;;;;5094969;28;20489;-70
2021/03/29 09:18:51;;;;;;;7.53;3.10;;;16.00;99.90;;;;;;5093567;28;20416;-71
2021/03/29 09:21:24;;;;;;;7.90;3.27;;;16.10;99.90;;;;;;5095243;28;20483;-71
2021/03/29 09:23:50;;;;;;;5.13;2.53;;;15.90;99.90;;;;;;5094986;28;20193;-71
2021/03/29 09:26:25;;;;;;;10.40;3.57;;;15.80;99.90;;;;;;5095073;28;20814;-71
2021/03/29 09:28:54;;;;;;;11.30;3.13;;;15.90;99.90;;;;;;5094541;28;20179;-71
2021/03/29 09:31:24;;;;;;;6.37;2.20;;;16.20;99.90;;;;;;5095410;28;20409;-71
2021/03/29 09:33:52;;;;;;;6.00;2.60;;;16.30;99.90;;;;;;5093093;28;20504;-71
2021/03/29 09:36:20;;;;;;;8.60;2.50;;;16.30;99.90;;;;;;5094251;28;20451;-71
2021/03/29 09:38:58;;;;;;;9.97;3.57;;;16.60;99.90;;;;;;5094649;28;20400;-71
2021/03/29 09:41:29;;;;;;;6.40;2.43;;;16.40;99.90;;;;;;5094412;28;20892;-71
2021/03/29 09:43:57;;;;;;;9.60;3.40;;;16.70;99.90;;;;;;5094545;28;20928;-71
2021/03/29 09:46:26;;;;;;;5.90;2.23;;;16.80;99.90;;;;;;5094640;28;20402;-71
2021/03/29 09:49:15;;;;;;;6.37;2.70;;;16.90;99.90;;;;;;5094316;28;20401;-71
2021/03/29 09:51:42;;;;;;;18.70;4.77;;;17.10;99.90;;;;;;5094388;28;20477;-71
2021/03/29 09:54:35;;;;;;;10.20;5.23;;;16.80;99.90;;;;;;5093123;28;20417;-71
2021/03/29 09:57:19;;;;;;;7.77;2.80;;;17.30;99.90;;;;;;5094114;28;20368;-71
2021/03/29 09:59:44;;;;;;;11.73;3.20;;;17.30;99.90;;;;;;5094514;28;20406;-71
2021/03/29 10:02:18;;;;;;;8.80;4.10;;;17.60;99.90;;;;;;5093882;28;20449;-71
2021/03/29 10:04:44;;;;;;;6.70;3.20;;;17.80;99.90;;;;;;5093911;28;20913;-72
2021/03/29 10:07:15;;;;;;;5.40;3.13;;;17.90;99.90;;;;;;5093881;28;21036;-71
2021/03/29 10:09:46;;;;;;;8.10;1.90;;;18.20;99.90;;;;;;5093843;28;20472;-71
2021/03/29 10:12:23;;;;;;;7.00;2.53;;;18.10;99.90;;;;;;5094313;28;20434;-72
2021/03/29 10:14:49;;;;;;;7.77;2.17;;;18.30;99.90;;;;;;5092438;28;20440;-71
2021/03/29 10:17:20;;;;;;;3.70;1.40;;;19.00;99.90;;;;;;5093784;28;20424;-72
2021/03/29 10:19:47;;;;;;;3.77;1.20;;;19.40;99.90;;;;;;5093769;28;20258;-72
2021/03/29 10:22:15;;;;;;;3.60;1.70;;;19.50;99.90;;;;;;5092582;28;20448;-72
2021/03/29 10:25:15;;;;;;;4.13;1.10;;;18.70;99.90;;;;;;5093706;28;20418;-71
2021/03/29 10:27:54;;;;;;;4.53;1.20;;;19.00;99.90;;;;;;5093894;28;20396;-71
2021/03/29 10:30:20;;;;;;;6.40;1.90;;;19.20;99.90;;;;;;5093325;28;20492;-71
2021/03/29 10:32:53;;;;;;;5.57;1.60;;;19.40;99.90;;;;;;5093487;28;20491;-71
2021/03/29 10:35:21;;;;;;;2.90;1.60;;;19.30;99.90;;;;;;5093713;28;20186;-71
2021/03/29 10:37:47;;;;;;;4.50;1.50;;;19.40;99.90;;;;;;5093413;28;20442;-70
2021/03/29 10:40:13;;;;;;;3.93;1.40;;;19.40;99.90;;;;;;5093304;28;20408;-72
2021/03/29 10:42:41;;;;;;;4.83;1.70;;;19.70;99.90;;;;;;5092788;28;20448;-72
2021/03/29 10:45:09;;;;;;;2.80;0.93;;;19.70;99.90;;;;;;5093628;28;20409;-71
2021/03/29 10:47:35;;;;;;;3.20;1.40;;;19.80;99.90;;;;;;5093866;28;20436;-71
2021/03/29 10:50:01;;;;;;;6.30;1.70;;;20.00;99.90;;;;;;5093055;28;20505;-72
2021/03/29 10:52:26;;;;;;;4.07;1.53;;;20.20;99.90;;;;;;5092848;28;20505;-71
2021/03/29 10:54:52;;;;;;;3.53;1.20;;;20.10;99.90;;;;;;5093381;28;20202;-71
2021/03/29 10:57:18;;;;;;;4.73;1.50;;;20.30;99.90;;;;;;5092854;28;20162;-71
2021/03/29 10:59:43;;;;;;;2.40;1.33;;;20.60;99.90;;;;;;5092990;28;20209;-71
2021/03/29 11:02:10;;;;;;;3.83;1.57;;;20.60;99.90;;;;;;5092846;28;20208;-71
2021/03/29 11:04:35;;;;;;;6.83;1.60;;;20.90;99.90;;;;;;5092927;28;20639;-71
2021/03/29 11:07:01;;;;;;;2.80;0.90;;;20.90;99.90;;;;;;5092585;28;20414;-70
2021/03/29 11:09:27;;;;;;;6.87;1.97;;;20.80;99.90;;;;;;5092732;28;20187;-71
2021/03/29 11:11:53;;;;;;;4.83;1.93;;;20.50;99.90;;;;;;5092639;28;20541;-71
2021/03/29 11:14:20;;;;;;;2.70;1.53;;;20.60;99.90;;;;;;5093030;28;20235;-70
2021/03/29 11:16:49;;;;;;;7.13;2.20;;;20.90;99.90;;;;;;5092422;28;20912;-71
2021/03/29 11:19:15;;;;;;;3.50;1.33;;;21.10;99.90;;;;;;5093030;28;20411;-70
2021/03/29 11:21:40;;;;;;;3.00;1.07;;;21.10;99.90;;;;;;5092368;28;20405;-70
2021/03/29 11:24:06;;;;;;;3.20;1.50;;;21.20;99.90;;;;;;5092642;28;20187;-71
2021/03/29 11:26:32;;;;;;;3.83;1.57;;;21.30;99.90;;;;;;5093395;28;20675;-72
2021/03/29 11:28:57;;;;;;;2.47;1.23;;;21.40;99.90;;;;;;5092348;28;20415;-71
2021/03/29 11:31:24;;;;;;;8.17;1.60;;;21.40;99.90;;;;;;5092562;28;20223;-71
2021/03/29 11:33:52;;;;;;;5.47;1.40;;;21.40;99.90;;;;;;5092597;28;20229;-72
2021/03/29 11:36:18;;;;;;;6.13;1.40;;;21.50;99.90;;;;;;5092413;28;20453;-70
2021/03/29 11:38:44;;;;;;;5.20;2.20;;;21.80;99.90;;;;;;5092412;28;20401;-71
2021/03/29 11:41:10;;;;;;;5.40;1.60;;;21.60;99.90;;;;;;5092650;28;20767;-71
2021/03/29 11:43:35;;;;;;;6.10;1.50;;;22.10;99.90;;;;;;5092442;28;20412;-71
2021/03/29 11:46:01;;;;;;;4.00;1.23;;;22.10;99.90;;;;;;5092924;28;20912;-71
2021/03/29 11:48:27;;;;;;;5.77;1.27;;;22.80;99.90;;;;;;5092391;28;20179;-71
2021/03/29 11:50:52;;;;;;;5.57;1.30;;;22.50;99.90;;;;;;5092466;28;20180;-71
2021/03/29 11:53:18;;;;;;;4.40;1.30;;;22.10;99.90;;;;;;5092840;28;20312;-71
2021/03/29 11:55:45;;;;;;;9.10;1.60;;;21.90;99.90;;;;;;5093486;28;20652;-71
2021/03/29 11:58:10;;;;;;;4.87;1.20;;;22.30;99.90;;;;;;5092267;28;20405;-71
2021/03/29 12:00:50;;;;;;;6.13;1.43;;;22.30;99.90;;;;;;5092424;28;20894;-71
2021/03/29 12:03:23;;;;;;;7.27;1.63;;;22.70;99.90;;;;;;5091945;28;20206;-71
2021/03/29 12:05:53;;;;;;;2.43;1.23;;;22.90;99.90;;;;;;5091886;28;20392;-71
2021/03/29 12:13:43;;;;;;;5.60;1.47;;;23.30;99.90;;;;;;5092724;28;20529;-71
2021/03/29 12:16:09;;;;;;;3.07;1.23;;;22.90;99.90;;;;;;5092447;28;20819;-71
2021/03/29 12:18:47;;;;;;;5.47;1.73;;;23.70;99.90;;;;;;5092281;28;20770;-71
2021/03/29 12:21:20;;;;;;;5.63;1.30;;;23.30;99.90;;;;;;5092510;28;20447;-71
2021/03/29 12:23:48;;;;;;;5.53;1.40;;;22.60;99.90;;;;;;5092229;28;20445;-69
2021/03/29 12:26:14;;;;;;;7.63;1.70;;;23.40;99.90;;;;;;5090695;28;20486;-71
2021/03/29 12:28:43;;;;;;;6.47;2.40;;;23.10;99.90;;;;;;5092050;28;20775;-71
2021/03/29 12:31:10;;;;;;;4.20;1.53;;;23.30;99.90;;;;;;5092358;28;20410;-68
2021/03/29 12:33:36;;;;;;;11.03;2.20;;;23.40;99.90;;;;;;5092042;28;20458;-69
2021/03/29 12:36:02;;;;;;;5.00;1.50;;;23.80;99.90;;;;;;5092497;28;20484;-68
2021/03/29 12:38:31;;;;;;;9.90;2.03;;;23.60;99.90;;;;;;5092037;28;20171;-69
2021/03/29 12:41:00;;;;;;;4.20;1.67;;;23.80;99.90;;;;;;5093553;28;20488;-69
2021/03/29 12:43:38;;;;;;;4.23;1.30;;;23.80;99.90;;;;;;5095712;28;20956;-68
2021/03/29 12:46:05;;;;;;;8.23;1.50;;;23.70;99.90;;;;;;5095862;28;20398;-69
2021/03/29 12:48:34;;;;;;;3.63;1.37;;;23.30;99.90;;;;;;5095986;28;20951;-69
2021/03/29 12:51:01;;;;;;;6.77;1.60;;;23.90;99.90;;;;;;5095514;28;20401;-69
2021/03/29 12:53:28;;;;;;;3.00;1.63;;;24.00;99.90;;;;;;5095372;28;20424;-69
2021/03/29 12:55:54;;;;;;;3.33;1.60;;;24.10;99.90;;;;;;5095385;28;20834;-69
2021/03/29 12:58:20;;;;;;;6.40;1.97;;;23.60;99.90;;;;;;5095294;28;20402;-69
2021/03/29 13:00:47;;;;;;;3.40;1.30;;;23.70;99.90;;;;;;5095145;28;20780;-69
2021/03/29 13:03:13;;;;;;;4.13;2.00;;;24.00;99.90;;;;;;5095533;28;20192;-69
2021/03/29 13:05:53;;;;;;;4.90;1.40;;;24.20;99.90;;;;;;5095240;28;20409;-69